Deering, Alaska
Current Conditions -  °F | °C
As of 9:53 PM on Friday 24 Oct 2014 (Local Time) from PADE Reporting Station
Few Clouds Few Clouds  
Wind Chill: 27°   Ceiling: Unl
Heat Index: 27°   Visibility: 10mi
Dew Point: 23°   Wind: 3mph
Humidity: 85%   Direction: 190°S
Pressure: 29.72"   Gusts: NA
Location:  66.07°N, 162.72°W
Report Text: PADE 250553Z AUTO 19003KT 10SM FEW050 M03/M05 A2972 RMK SLP064 60000 T10281050 10011 21028 53000 TSNO $ VIA AUTODIAL
Loading
Personal Weather Stations






























Interactive Weather Map
Tropical Storm Tracking
New forecast layout! Learn more

10-Day Weather Forecast

Advertisements
Track Severe Weather on mobile